Time;durP1;ratioP1;P1;durP2;ratioP2;P2;SDS_P1;SDS_P2;PMS_P1;PMS_P2;Temp;Humidity;BMP_temperature;BMP_pressure;BME280_temperature;BME280_humidity;BME280_pressure;Samples;Min_cycle;Max_cycle;Signal;HPM_P1;HPM_P2
2022/09/30 00:01:40;;;;;;;17.10;15.50;;;;;;;8.30;72.57;99802.52;105444;1279;25332;-76
2022/09/30 00:04:34;;;;;;;19.30;15.40;;;;;;;8.21;72.54;99802.79;105654;1279;25376;-78
2022/09/30 00:07:01;;;;;;;18.00;15.10;;;;;;;8.20;72.73;99805.79;105565;1281;25700;-77
2022/09/30 00:09:27;;;;;;;17.30;15.70;;;;;;;8.17;72.74;99802.31;105464;1276;22718;-79
2022/09/30 00:11:54;;;;;;;18.20;16.10;;;;;;;8.14;72.81;99804.80;105903;1277;22528;-80
2022/09/30 00:14:22;;;;;;;18.70;16.60;;;;;;;8.14;73.01;99798.81;105814;1277;25354;-79
2022/09/30 00:16:50;;;;;;;17.50;15.70;;;;;;;8.13;72.88;99796.73;105105;1285;22546;-79
2022/09/30 00:19:16;;;;;;;19.10;17.20;;;;;;;8.08;73.04;99800.45;105052;1285;26616;-85
2022/09/30 00:21:44;;;;;;;17.90;16.10;;;;;;;8.03;73.34;99802.06;104522;1291;25374;-82
2022/09/30 00:24:11;;;;;;;18.00;15.20;;;;;;;8.00;73.67;99806.48;104619;1290;24244;-81
2022/09/30 00:26:38;;;;;;;17.10;15.40;;;;;;;8.00;73.68;99809.45;104581;1290;22800;-80
2022/09/30 00:29:05;;;;;;;16.80;15.10;;;;;;;8.01;73.74;99808.39;104950;1290;25984;-82
2022/09/30 00:31:34;;;;;;;16.50;14.90;;;;;;;7.99;73.45;99808.59;104711;1290;24244;-75
2022/09/30 00:34:11;;;;;;;17.10;15.50;;;;;;;7.96;73.28;99811.59;104957;1287;22707;-75
2022/09/30 00:36:42;;;;;;;18.60;16.60;;;;;;;7.92;73.18;99816.54;105726;1279;22547;-80
2022/09/30 00:39:15;;;;;;;18.60;16.70;;;;;;;7.86;73.26;99822.00;105745;1273;25252;-81
2022/09/30 00:41:42;;;;;;;17.50;15.80;;;;;;;7.80;73.22;99818.02;106162;1273;22749;-83
2022/09/30 00:44:49;;;;;;;16.80;15.10;;;;;;;7.67;73.14;99815.83;105939;1275;22622;-83
2022/09/30 00:47:30;;;;;;;16.70;14.90;;;;;;;7.61;73.53;99820.94;106051;1273;26513;-78
2022/09/30 00:50:01;;;;;;;16.10;14.60;;;;;;;7.61;73.67;99820.23;105964;1275;25245;-81
2022/09/30 00:52:29;;;;;;;17.40;15.50;;;;;;;7.65;73.84;99812.34;105909;1274;24238;-78
2022/09/30 00:54:59;;;;;;;16.50;15.00;;;;;;;7.69;73.90;99812.83;105994;1273;24782;-81
2022/09/30 00:57:28;;;;;;;17.10;14.80;;;;;;;7.71;73.79;99816.67;106000;1276;24301;-80
2022/09/30 00:59:55;;;;;;;16.50;14.80;;;;;;;7.70;73.80;99825.63;105283;1284;22635;-78
2022/09/30 01:02:23;;;;;;;17.20;15.50;;;;;;;7.66;73.54;99823.89;105348;1283;22753;-83
2022/09/30 01:04:50;;;;;;;18.70;16.70;;;;;;;7.61;73.83;99820.60;105029;1288;23969;-85
2022/09/30 01:07:17;;;;;;;17.90;16.00;;;;;;;7.57;73.78;99813.10;105068;1287;24315;-82
2022/09/30 01:09:44;;;;;;;16.80;15.10;;;;;;;7.53;73.93;99809.26;105095;1287;22661;-82
2022/09/30 01:12:14;;;;;;;17.00;15.20;;;;;;;7.56;74.08;99815.73;104909;1287;25250;-81
2022/09/30 01:14:44;;;;;;;19.90;17.90;;;;;;;7.54;74.06;99818.02;104855;1288;22641;-80
2022/09/30 01:17:48;;;;;;;22.50;20.00;;;;;;;7.57;74.27;99810.81;105157;1284;24401;-83
2022/09/30 01:20:40;;;;;;;29.50;24.50;;;;;;;7.59;74.60;99807.81;105593;1281;22805;-81
2022/09/30 01:23:41;;;;;;;28.50;23.60;;;;;;;7.62;74.54;99816.02;105923;1273;22570;-83
2022/09/30 01:26:35;;;;;;;28.30;25.30;;;;;;;7.62;74.57;99805.16;106232;1273;24320;-84
2022/09/30 01:29:27;;;;;;;35.80;30.00;;;;;;;7.58;74.30;99799.76;106350;1273;24253;-83
2022/09/30 01:32:09;;;;;;;35.60;29.10;;;;;;;7.55;74.34;99809.07;106524;1273;22534;-82
2022/09/30 01:34:51;;;;;;;33.70;29.10;;;;;;;7.55;74.45;99817.11;107470;1273;22714;-77
2022/09/30 01:37:44;;;;;;;33.80;29.70;;;;;;;7.57;74.42;99818.70;106382;1273;22552;-78
2022/09/30 01:40:40;;;;;;;34.40;29.70;;;;;;;7.51;74.09;99816.45;106333;1273;22805;-79
2022/09/30 01:43:30;;;;;;;34.70;30.10;;;;;;;7.47;74.30;99823.13;106208;1273;25595;-79
2022/09/30 01:46:04;;;;;;;38.00;33.10;;;;;;;7.45;74.38;99822.08;106623;1273;22585;-80
2022/09/30 01:48:45;;;;;;;39.80;34.20;;;;;;;7.44;74.40;99823.31;106388;1273;24227;-76
2022/09/30 01:51:30;;;;;;;38.80;33.10;;;;;;;7.43;74.25;99828.05;106589;1273;25210;-78
2022/09/30 01:54:17;;;;;;;37.70;32.80;;;;;;;7.44;74.19;99834.71;107093;1273;22493;-79
2022/09/30 01:56:50;;;;;;;38.80;32.80;;;;;;;7.43;74.18;99832.42;106911;1274;23196;-79
2022/09/30 01:59:25;;;;;;;38.10;32.00;;;;;;;7.45;74.23;99838.38;106897;1274;23953;-79
2022/09/30 02:02:03;;;;;;;41.20;34.90;;;;;;;7.46;74.08;99844.85;106519;1273;22796;-80
2022/09/30 02:04:34;;;;;;;38.10;34.00;;;;;;;7.45;73.99;99850.63;106113;1274;24292;-81
2022/09/30 02:07:07;;;;;;;38.50;34.30;;;;;;;7.39;73.96;99851.38;106021;1273;25360;-81
2022/09/30 02:09:42;;;;;;;39.60;35.00;;;;;;;7.37;74.01;99853.14;105949;1277;22535;-82
2022/09/30 02:12:14;;;;;;;41.40;33.50;;;;;;;7.41;74.07;99855.21;105638;1281;22555;-79
2022/09/30 02:14:47;;;;;;;39.80;33.10;;;;;;;7.46;74.01;99857.81;106100;1279;22970;-79
2022/09/30 02:17:22;;;;;;;40.00;33.70;;;;;;;7.48;73.77;99859.04;107020;1279;24512;-79
2022/09/30 02:19:59;;;;;;;42.70;35.20;;;;;;;7.46;73.75;99865.36;107364;1279;22581;-80
2022/09/30 02:22:44;;;;;;;39.50;33.80;;;;;;;7.38;73.47;99872.39;107186;1279;25371;-79
2022/09/30 02:25:19;;;;;;;40.60;33.60;;;;;;;7.31;73.61;99878.91;107193;1279;22559;-79
2022/09/30 02:27:55;;;;;;;40.80;35.50;;;;;;;7.29;73.73;99881.02;107327;1274;22474;-80
2022/09/30 02:30:22;;;;;;;38.40;34.30;;;;;;;7.28;73.83;99871.58;107801;1274;25255;-80
2022/09/30 02:32:54;;;;;;;36.30;31.60;;;;;;;7.31;73.85;99870.33;107359;1275;22974;-81
2022/09/30 02:35:30;;;;;;;40.80;31.80;;;;;;;7.29;73.66;99874.72;106891;1274;22532;-79
2022/09/30 02:38:05;;;;;;;39.40;33.10;;;;;;;7.25;73.73;99882.60;106142;1275;22553;-82
2022/09/30 02:40:49;;;;;;;39.10;31.90;;;;;;;7.22;73.57;99880.52;105990;1274;23213;-82
2022/09/30 02:43:19;;;;;;;37.00;33.00;;;;;;;7.14;73.52;99883.34;106126;1275;22785;-85
2022/09/30 02:46:30;;;;;;;37.10;33.10;;;;;;;7.14;73.86;99882.30;105977;1275;23190;-81
2022/09/30 02:49:13;;;;;;;40.70;33.70;;;;;;;7.14;73.95;99883.70;105938;1275;24379;-81
2022/09/30 02:51:44;;;;;;;35.80;31.90;;;;;;;7.15;74.06;99884.39;106123;1276;22781;-80
2022/09/30 02:54:24;;;;;;;39.20;31.80;;;;;;;7.13;73.84;99882.65;105970;1275;22876;-77
2022/09/30 02:57:01;;;;;;;38.40;30.80;;;;;;;7.04;73.67;99895.63;106136;1274;22815;-80
2022/09/30 02:59:28;;;;;;;40.60;30.80;;;;;;;7.04;74.09;99897.21;106395;1274;25350;-83
2022/09/30 03:01:55;;;;;;;34.00;30.10;;;;;;;7.10;74.20;99898.77;106436;1274;22582;-82
2022/09/30 03:04:26;;;;;;;34.40;30.80;;;;;;;7.10;73.97;99900.17;106146;1275;22720;-82
2022/09/30 03:06:54;;;;;;;37.50;30.20;;;;;;;7.05;73.82;99896.34;106313;1275;25360;-80
2022/09/30 03:09:26;;;;;;;36.40;31.60;;;;;;;7.03;74.02;99897.21;106188;1274;24351;-84
2022/09/30 03:12:05;;;;;;;35.80;31.60;;;;;;;7.07;74.10;99895.45;106268;1274;22568;-81
2022/09/30 03:15:10;;;;;;;34.90;30.30;;;;;;;7.11;74.25;99894.04;106326;1274;25608;-86
2022/09/30 03:18:02;;;;;;;35.40;31.10;;;;;;;7.13;74.19;99903.66;105789;1274;25258;-83
2022/09/30 03:20:43;;;;;;;34.30;28.60;;;;;;;7.10;73.98;99898.59;106015;1274;25247;-79
2022/09/30 03:23:38;;;;;;;35.10;29.00;;;;;;;7.09;74.00;99892.64;106014;1274;22756;-77
2022/09/30 03:26:20;;;;;;;34.10;30.30;;;;;;;7.10;74.20;99892.29;105885;1275;25558;-76
2022/09/30 03:29:03;;;;;;;40.10;31.80;;;;;;;7.12;74.04;99896.84;106228;1274;22543;-79
2022/09/30 03:31:36;;;;;;;35.00;31.30;;;;;;;7.04;73.84;99903.86;105948;1275;22544;-82
2022/09/30 03:34:32;;;;;;;36.30;32.20;;;;;;;6.98;73.83;99909.83;106256;1274;24235;-81
2022/09/30 03:37:11;;;;;;;36.70;29.70;;;;;;;6.97;74.24;99916.30;106335;1274;23079;-81
2022/09/30 03:40:10;;;;;;;39.10;30.70;;;;;;;6.99;74.36;99920.15;106314;1273;22554;-80
2022/09/30 03:42:47;;;;;;;38.10;30.60;;;;;;;7.00;74.16;99909.65;106155;1274;22668;-82
2022/09/30 03:45:23;;;;;;;37.20;28.40;;;;;;;6.95;73.96;99909.48;106296;1273;22479;-78
2022/09/30 03:47:55;;;;;;;35.10;30.10;;;;;;;6.90;73.96;99909.32;107001;1273;23337;-84
2022/09/30 03:50:26;;;;;;;32.90;28.50;;;;;;;6.91;74.39;99908.25;107892;1273;156925;-84
2022/09/30 03:52:53;;;;;;;35.00;29.50;;;;;;;6.92;74.20;99906.86;108279;1281;23683;-88
2022/09/30 03:55:22;;;;;;;36.70;30.80;;;;;;;6.96;74.29;99912.63;108910;1281;22666;-87
2022/09/30 03:57:50;;;;;;;38.80;32.10;;;;;;;6.96;74.25;99916.13;107842;1281;25496;-81
2022/09/30 04:00:18;;;;;;;35.70;31.80;;;;;;;6.94;74.18;99909.83;107577;1281;25527;-76
2022/09/30 04:02:45;;;;;;;33.20;29.60;;;;;;;6.97;74.29;99906.33;106670;1282;22483;-79
2022/09/30 04:05:12;;;;;;;34.50;28.90;;;;;;;6.97;74.04;99907.73;107730;1281;22989;-76
2022/09/30 04:07:39;;;;;;;32.20;28.30;;;;;;;6.95;74.21;99913.69;106389;1284;23153;-84
2022/09/30 04:10:06;;;;;;;34.70;30.30;;;;;;;6.98;74.36;99914.38;105618;1278;22548;-80
2022/09/30 04:12:33;;;;;;;37.30;30.60;;;;;;;7.04;74.41;99916.83;106134;1273;25331;-80
2022/09/30 04:15:00;;;;;;;35.20;28.40;;;;;;;7.06;74.23;99922.77;106055;1275;22538;-85
2022/09/30 04:17:27;;;;;;;36.40;28.50;;;;;;;7.03;74.27;99923.64;105771;1273;25504;-79
2022/09/30 04:19:53;;;;;;;37.50;30.50;;;;;;;7.03;74.40;99926.45;105907;1273;22865;-79
2022/09/30 04:22:20;;;;;;;35.30;28.50;;;;;;;7.04;74.41;99933.45;106120;1273;25206;-80
2022/09/30 04:24:52;;;;;;;36.70;29.80;;;;;;;7.07;74.36;99940.10;106876;1273;22653;-83
2022/09/30 04:27:19;;;;;;;35.40;28.40;;;;;;;7.06;74.50;99943.44;105575;1279;25379;-84
2022/09/30 04:29:46;;;;;;;33.40;28.90;;;;;;;7.09;74.41;99948.16;105414;1284;23513;-85
2022/09/30 04:32:13;;;;;;;31.00;27.70;;;;;;;7.10;74.38;99956.73;105163;1285;25316;-86
2022/09/30 04:34:40;;;;;;;32.60;27.30;;;;;;;7.11;74.38;99963.38;104971;1284;22741;-85
2022/09/30 04:37:08;;;;;;;31.70;26.50;;;;;;;7.11;74.47;99963.04;105074;1285;23929;-84
2022/09/30 04:39:37;;;;;;;31.40;27.40;;;;;;;7.13;74.33;99961.80;106523;1284;24228;-86
2022/09/30 04:42:05;;;;;;;34.00;28.20;;;;;;;7.16;74.36;99967.23;104936;1284;24335;-87
2022/09/30 04:44:32;;;;;;;30.80;27.10;;;;;;;7.10;74.03;99969.17;105305;1284;25478;-86
2022/09/30 04:47:00;;;;;;;33.10;27.60;;;;;;;7.06;74.12;99971.63;105529;1282;26489;-81
2022/09/30 04:49:27;;;;;;;33.40;27.10;;;;;;;7.00;73.96;99970.92;105796;1274;23964;-79
2022/09/30 04:51:54;;;;;;;34.70;26.30;;;;;;;7.02;74.19;99973.55;107264;1274;22652;-86
2022/09/30 04:54:22;;;;;;;32.80;26.30;;;;;;;7.05;74.39;99968.48;106304;1275;22566;-86
2022/09/30 04:56:48;;;;;;;32.80;27.60;;;;;;;7.09;74.43;99964.44;106050;1274;25785;-86
2022/09/30 04:59:16;;;;;;;31.30;27.50;;;;;;;7.10;74.14;99964.27;105789;1275;24302;-78
2022/09/30 05:01:43;;;;;;;36.00;27.80;;;;;;;7.08;74.08;99973.73;106058;1275;22559;-88
2022/09/30 05:04:11;;;;;;;35.30;29.10;;;;;;;7.10;74.32;99978.27;105914;1275;22882;-86
2022/09/30 05:06:41;;;;;;;31.00;27.60;;;;;;;7.11;74.24;99980.02;105845;1274;24771;-84
2022/09/30 05:09:08;;;;;;;32.30;26.90;;;;;;;7.12;74.22;99985.27;105884;1274;24198;-80
2022/09/30 05:11:37;;;;;;;32.50;26.30;;;;;;;7.13;74.09;99991.23;106086;1275;22543;-81
2022/09/30 05:14:08;;;;;;;32.10;27.60;;;;;;;7.15;74.04;99995.95;106127;1274;22570;-85
2022/09/30 05:16:35;;;;;;;32.60;28.70;;;;;;;7.17;74.07;100003.65;106007;1276;22621;-83
2022/09/30 05:19:02;;;;;;;34.20;29.20;;;;;;;7.19;74.08;100004.69;106403;1274;25250;-85
2022/09/30 05:21:29;;;;;;;35.20;28.20;;;;;;;7.17;73.90;100002.60;106152;1275;25244;-84
2022/09/30 05:23:57;;;;;;;37.10;29.90;;;;;;;7.10;73.84;99996.83;106139;1275;22544;-83
2022/09/30 05:26:24;;;;;;;31.90;28.50;;;;;;;7.05;74.08;99989.48;106429;1274;24230;-85
2022/09/30 05:28:51;;;;;;;37.60;27.40;;;;;;;7.07;74.22;99992.27;106301;1274;22634;-86
2022/09/30 05:31:19;;;;;;;38.40;28.40;;;;;;;7.10;74.35;99992.27;105903;1278;22556;-87
2022/09/30 05:33:46;;;;;;;37.40;27.40;;;;;;;7.11;74.31;99993.15;106079;1279;22544;-85
2022/09/30 05:36:15;;;;;;;33.90;27.90;;;;;;;7.12;74.61;99997.35;105878;1281;22538;-77
2022/09/30 05:38:42;;;;;;;34.00;28.50;;;;;;;7.17;74.47;99991.91;105391;1281;25253;-80
2022/09/30 05:41:13;;;;;;;34.50;28.00;;;;;;;7.13;74.32;100001.38;105561;1281;25642;-78
2022/09/30 05:43:46;;;;;;;31.10;27.50;;;;;;;7.08;74.37;100008.22;105002;1284;22694;-79
2022/09/30 05:46:15;;;;;;;37.70;28.80;;;;;;;7.06;74.71;100015.74;105042;1284;25658;-79
2022/09/30 05:48:44;;;;;;;33.80;26.30;;;;;;;7.09;74.90;100020.30;104899;1281;22565;-82
2022/09/30 05:51:11;;;;;;;33.90;27.60;;;;;;;7.17;75.08;100020.81;105325;1280;23973;-80
2022/09/30 05:53:38;;;;;;;33.90;29.20;;;;;;;7.26;75.18;100019.05;105532;1281;25371;-78
2022/09/30 05:56:06;;;;;;;37.70;27.90;;;;;;;7.33;75.15;100021.67;105628;1281;22541;-81
2022/09/30 05:58:34;;;;;;;34.40;27.20;;;;;;;7.36;75.09;100017.46;105301;1281;22570;-79
2022/09/30 06:01:07;;;;;;;34.50;27.90;;;;;;;7.39;75.04;100019.03;105711;1279;22709;-81
2022/09/30 06:03:40;;;;;;;36.50;25.80;;;;;;;7.41;75.09;100016.91;105976;1274;22544;-78
2022/09/30 06:06:07;;;;;;;29.80;24.90;;;;;;;7.44;75.03;100020.23;105858;1276;23069;-79
2022/09/30 06:08:34;;;;;;;28.80;25.20;;;;;;;7.47;75.06;100023.92;105994;1274;24405;-78
2022/09/30 06:11:07;;;;;;;30.20;24.50;;;;;;;7.50;75.15;100026.89;105889;1274;22729;-80
2022/09/30 06:13:34;;;;;;;31.70;25.30;;;;;;;7.55;75.06;100029.51;105994;1275;25472;-81
2022/09/30 06:16:01;;;;;;;29.50;24.80;;;;;;;7.59;75.11;100035.10;105903;1275;24097;-80
2022/09/30 06:18:29;;;;;;;31.10;25.80;;;;;;;7.63;75.20;100033.52;105819;1275;25251;-82
2022/09/30 06:21:02;;;;;;;28.70;24.80;;;;;;;7.66;75.25;100038.05;105606;1275;22638;-80
2022/09/30 06:23:31;;;;;;;29.60;25.00;;;;;;;7.71;75.28;100046.83;105311;1281;23956;-78
2022/09/30 06:25:57;;;;;;;31.50;24.60;;;;;;;7.78;75.19;100043.81;105320;1284;22641;-81
2022/09/30 06:28:26;;;;;;;29.50;24.90;;;;;;;7.80;75.06;100042.75;105565;1281;22541;-80
2022/09/30 06:30:53;;;;;;;32.70;25.70;;;;;;;7.83;74.92;100051.69;105931;1281;22556;-80
2022/09/30 06:33:21;;;;;;;34.10;25.80;;;;;;;7.87;75.06;100052.19;106341;1281;24563;-78
2022/09/30 06:35:50;;;;;;;30.60;26.30;;;;;;;7.93;75.05;100053.58;106012;1281;22739;-80
2022/09/30 06:38:17;;;;;;;36.70;27.40;;;;;;;8.01;75.15;100053.20;106316;1281;22548;-78
2022/09/30 06:40:48;;;;;;;35.90;27.10;;;;;;;8.06;74.96;100050.55;106353;1281;22498;-79
2022/09/30 06:43:19;;;;;;;39.80;29.10;;;;;;;8.10;74.88;100050.71;105737;1281;23971;-82
2022/09/30 06:45:50;;;;;;;36.30;28.30;;;;;;;8.09;74.73;100053.34;106071;1281;25371;-77
2022/09/30 06:48:18;;;;;;;36.70;26.60;;;;;;;8.13;74.97;100056.48;106228;1274;22561;-82
2022/09/30 06:51:01;;;;;;;36.70;28.40;;;;;;;8.19;75.01;100058.05;106119;1276;22570;-81
2022/09/30 06:53:28;;;;;;;38.40;29.20;;;;;;;8.17;74.97;100060.50;106051;1274;22656;-81
2022/09/30 06:55:56;;;;;;;39.60;30.10;;;;;;;8.18;75.32;100059.09;106111;1275;23283;-81
2022/09/30 06:58:24;;;;;;;39.10;30.00;;;;;;;8.21;75.39;100057.85;106004;1275;24223;-81
2022/09/30 07:01:04;;;;;;;34.50;28.60;;;;;;;8.25;75.45;100056.09;106004;1274;25353;-79
2022/09/30 07:03:34;;;;;;;39.20;28.80;;;;;;;8.26;75.45;100057.83;105958;1276;26499;-79
2022/09/30 07:06:03;;;;;;;38.30;28.10;;;;;;;8.32;75.54;100058.32;106229;1274;23212;-81
2022/09/30 07:08:33;;;;;;;40.20;28.20;;;;;;;8.39;75.56;100064.95;106140;1274;25247;-81
2022/09/30 07:11:10;;;;;;;43.70;31.40;;;;;;;8.46;75.95;100060.35;105564;1281;23279;-82
2022/09/30 07:13:38;;;;;;;43.80;30.80;;;;;;;8.57;75.77;100061.55;105628;1279;22607;-78
2022/09/30 07:16:05;;;;;;;46.30;33.30;;;;;;;8.62;75.71;100066.44;105510;1281;25671;-80
2022/09/30 07:18:32;;;;;;;50.20;32.50;;;;;;;8.69;75.63;100068.14;105658;1279;25454;-81
2022/09/30 07:20:59;;;;;;;46.40;31.50;;;;;;;8.74;75.69;100064.77;105371;1281;24211;-82
2022/09/30 07:23:26;;;;;;;49.10;32.50;;;;;;;8.79;75.57;100061.41;105685;1281;22636;-78
2022/09/30 07:25:59;;;;;;;52.40;32.30;;;;;;;8.91;75.62;100062.89;105517;1281;22719;-82
2022/09/30 07:28:30;;;;;;;48.50;33.90;;;;;;;9.07;75.78;100067.16;105327;1276;22537;-78
2022/09/30 07:30:59;;;;;;;50.10;33.70;;;;;;;9.17;75.29;100073.24;105719;1279;23113;-82
2022/09/30 07:33:50;;;;;;;41.10;30.20;;;;;;;9.28;75.23;100079.64;105678;1279;22569;-81
2022/09/30 07:36:22;;;;;;;38.60;28.90;;;;;;;9.36;75.19;100080.80;105556;1280;22747;-79
2022/09/30 07:38:55;;;;;;;32.50;27.50;;;;;;;9.41;75.17;100078.48;105580;1279;22550;-81
2022/09/30 07:41:27;;;;;;;32.30;26.60;;;;;;;9.47;75.18;100075.26;105503;1279;24621;-81
2022/09/30 07:43:58;;;;;;;33.00;26.40;;;;;;;9.57;75.05;100083.42;105790;1279;22664;-82
2022/09/30 07:46:30;;;;;;;30.10;25.50;;;;;;;9.68;75.11;100083.13;105740;1279;24193;-78
2022/09/30 07:49:01;;;;;;;34.20;27.50;;;;;;;9.80;74.90;100088.98;105577;1275;23088;-85
2022/09/30 07:51:37;;;;;;;36.00;27.00;;;;;;;9.93;74.90;100093.95;106053;1274;22720;-81
2022/09/30 07:54:08;;;;;;;;;;;;;;;9.97;74.77;100093.20;106200;1274;22645;-82
2022/09/30 07:56:37;;;;;;;30.50;27.00;;;;;;;10.01;74.71;100094.91;106139;1274;22619;-83
2022/09/30 07:59:26;;;;;;;33.00;25.90;;;;;;;10.07;74.58;100103.29;106114;1275;25242;-81
2022/09/30 08:01:53;;;;;;;30.40;23.50;;;;;;;10.12;74.53;100106.74;106308;1281;22539;-81
2022/09/30 08:04:21;;;;;;;29.80;25.00;;;;;;;10.20;74.49;100112.27;106555;1281;26525;-82
2022/09/30 08:06:54;;;;;;;31.70;25.10;;;;;;;10.29;74.56;100112.36;106381;1281;22544;-81
2022/09/30 08:09:24;;;;;;;31.30;25.00;;;;;;;10.35;74.20;100117.02;105554;1281;24223;-82
2022/09/30 08:11:51;;;;;;;33.60;27.60;;;;;;;10.45;74.25;100115.86;105519;1281;22549;-81
2022/09/30 08:14:23;;;;;;;28.50;24.60;;;;;;;10.52;74.22;100121.25;105666;1279;22666;-81
2022/09/30 08:16:51;;;;;;;29.80;23.90;;;;;;;10.60;74.20;100121.66;105391;1281;22565;-80
2022/09/30 08:19:21;;;;;;;27.90;24.20;;;;;;;10.68;74.14;100118.92;105728;1275;25365;-81
2022/09/30 08:21:49;;;;;;;30.50;24.30;;;;;;;10.80;73.93;100125.80;106187;1274;26001;-81
2022/09/30 08:24:16;;;;;;;28.00;23.30;;;;;;;10.90;73.73;100128.30;105876;1275;25371;-80
2022/09/30 08:26:43;;;;;;;26.00;23.10;;;;;;;11.00;73.63;100123.76;105949;1274;23063;-81
2022/09/30 08:29:12;;;;;;;31.00;25.00;;;;;;;11.08;73.54;100126.62;106026;1274;22547;-79
2022/09/30 08:31:46;;;;;;;28.70;23.80;;;;;;;11.14;73.32;100125.65;105847;1275;24252;-81
2022/09/30 08:34:14;;;;;;;27.20;23.60;;;;;;;11.22;73.31;100123.24;106045;1274;24814;-79
2022/09/30 08:36:41;;;;;;;31.20;24.40;;;;;;;11.28;73.01;100128.78;106014;1274;22577;-80
2022/09/30 08:39:09;;;;;;;29.50;25.00;;;;;;;11.30;72.78;100130.86;105941;1275;24632;-80
2022/09/30 08:42:05;;;;;;;25.30;22.30;;;;;;;11.34;72.74;100132.39;105860;1276;22548;-80
2022/09/30 08:45:06;;;;;;;26.10;22.80;;;;;;;11.44;72.90;100134.86;106088;1274;22554;-83
2022/09/30 08:47:42;;;;;;;25.70;22.50;;;;;;;11.54;72.50;100135.39;106032;1274;22734;-84
2022/09/30 08:50:22;;;;;;;25.60;22.80;;;;;;;11.63;72.19;100136.31;106131;1274;22848;-84
2022/09/30 08:52:51;;;;;;;27.30;23.60;;;;;;;11.73;71.61;100138.26;106200;1276;22662;-80
2022/09/30 08:55:42;;;;;;;28.40;23.60;;;;;;;11.76;71.24;100141.73;105743;1281;22707;-79
2022/09/30 08:58:26;;;;;;;27.00;24.10;;;;;;;11.80;71.18;100143.59;105834;1280;22560;-80
2022/09/30 09:01:01;;;;;;;28.20;24.80;;;;;;;11.84;71.07;100144.23;106037;1281;22576;-80
2022/09/30 09:03:30;;;;;;;27.50;24.00;;;;;;;11.88;71.00;100139.39;105988;1281;23960;-80
2022/09/30 09:05:59;;;;;;;26.70;23.90;;;;;;;11.93;70.89;100144.23;105604;1281;22499;-81
2022/09/30 09:08:35;;;;;;;24.90;22.40;;;;;;;11.96;70.64;100148.08;105220;1284;25260;-79
2022/09/30 09:11:19;;;;;;;25.80;22.20;;;;;;;11.95;70.75;100151.27;105307;1284;25273;-78
2022/09/30 09:14:17;;;;;;;24.20;21.50;;;;;;;11.97;70.61;100154.23;105610;1281;22736;-79
2022/09/30 09:17:02;;;;;;;24.10;21.60;;;;;;;12.02;70.42;100152.55;105854;1281;23971;-79
2022/09/30 09:19:54;;;;;;;23.50;21.00;;;;;;;12.05;70.30;100152.30;105415;1281;23826;-80
2022/09/30 09:22:23;;;;;;;24.90;20.60;;;;;;;12.06;70.07;100155.82;104971;1287;23432;-80
2022/09/30 09:24:52;;;;;;;23.60;21.10;;;;;;;12.04;69.81;100156.04;105035;1286;25251;-81
2022/09/30 09:27:25;;;;;;;21.80;19.60;;;;;;;12.03;69.77;100154.48;105851;1281;25484;-80
2022/09/30 09:30:06;;;;;;;23.70;21.30;;;;;;;11.99;69.77;100151.54;105584;1281;25306;-82
2022/09/30 09:32:35;;;;;;;25.20;22.50;;;;;;;12.03;69.69;100153.06;106287;1281;23183;-80
2022/09/30 09:35:21;;;;;;;23.70;21.30;;;;;;;12.05;69.69;100154.25;106175;1281;22604;-80
2022/09/30 09:38:25;;;;;;;24.90;20.50;;;;;;;12.07;69.59;100154.22;107017;1281;25250;-80
2022/09/30 09:41:29;;;;;;;22.10;19.90;;;;;;;12.12;69.86;100153.27;107233;1274;22616;-80
2022/09/30 09:44:08;;;;;;;20.20;18.10;;;;;;;12.24;69.71;100153.04;105949;1275;22730;-79
2022/09/30 09:46:38;;;;;;;21.30;18.30;;;;;;;12.35;69.52;100152.63;106037;1274;22703;-81
2022/09/30 09:49:19;;;;;;;21.50;18.40;;;;;;;12.48;69.47;100148.33;106038;1274;22690;-81
2022/09/30 09:51:58;;;;;;;19.80;17.80;;;;;;;12.63;69.21;100138.64;105991;1274;22557;-78
2022/09/30 09:54:27;;;;;;;19.00;17.10;;;;;;;12.76;68.75;100137.13;106067;1274;22557;-82
2022/09/30 09:56:54;;;;;;;19.20;17.30;;;;;;;12.86;68.47;100143.80;105754;1276;22574;-80
2022/09/30 09:59:24;;;;;;;18.80;16.90;;;;;;;12.98;68.23;100137.70;105918;1274;22713;-81
2022/09/30 10:01:53;;;;;;;19.90;18.00;;;;;;;13.06;67.97;100134.51;105853;1274;22533;-80
2022/09/30 10:04:29;;;;;;;21.20;19.00;;;;;;;13.14;67.87;100134.83;105889;1276;26689;-80
2022/09/30 10:07:01;;;;;;;24.90;21.10;;;;;;;13.25;68.04;100135.11;105962;1274;22545;-80
2022/09/30 10:09:29;;;;;;;22.10;19.90;;;;;;;13.37;68.03;100134.30;105884;1276;25391;-80
2022/09/30 10:12:05;;;;;;;25.60;19.20;;;;;;;13.46;67.56;100130.52;105980;1274;22580;-79
2022/09/30 10:14:45;;;;;;;20.60;18.50;;;;;;;13.57;67.32;100128.52;106123;1273;24360;-78
2022/09/30 10:17:30;;;;;;;21.40;18.60;;;;;;;13.73;67.08;100128.30;105536;1281;22591;-81
2022/09/30 10:20:01;;;;;;;22.60;19.20;;;;;;;13.88;66.77;100122.59;105531;1281;24251;-76
2022/09/30 10:22:30;;;;;;;22.80;19.30;;;;;;;14.01;66.25;100120.11;105613;1281;24452;-82
2022/09/30 10:25:17;;;;;;;24.90;19.20;;;;;;;14.09;65.62;100120.94;105360;1281;24237;-79
2022/09/30 10:27:47;;;;;;;20.10;17.90;;;;;;;14.09;65.61;100121.66;105617;1281;24363;-79
2022/09/30 10:30:34;;;;;;;18.50;16.60;;;;;;;14.10;65.27;100124.45;105690;1281;22869;-81
2022/09/30 10:33:03;;;;;;;17.90;16.10;;;;;;;14.12;65.09;100128.48;105651;1281;22728;-82
2022/09/30 10:35:30;;;;;;;18.80;15.90;;;;;;;14.09;65.02;100129.62;105979;1274;22670;-82
2022/09/30 10:37:59;;;;;;;15.70;14.10;;;;;;;14.08;65.17;100132.31;106051;1275;23261;-83
2022/09/30 10:40:29;;;;;;;15.30;13.60;;;;;;;14.08;65.02;100137.62;106189;1274;22574;-81
2022/09/30 10:42:57;;;;;;;16.00;14.20;;;;;;;14.08;64.88;100142.56;105967;1275;25394;-83
2022/09/30 10:45:30;;;;;;;15.80;13.20;;;;;;;14.07;64.98;100143.13;106029;1275;22721;-80
2022/09/30 10:48:05;;;;;;;14.80;12.50;;;;;;;14.05;64.71;100143.18;105866;1274;26509;-80
2022/09/30 10:50:32;;;;;;;14.20;12.50;;;;;;;14.10;64.95;100139.50;106105;1274;22557;-81
2022/09/30 10:53:10;;;;;;;17.10;11.70;;;;;;;14.13;64.36;100140.86;106021;1274;26499;-81
2022/09/30 10:55:43;;;;;;;10.90;9.90;;;;;;;14.17;64.10;100138.98;105958;1275;24325;-80
2022/09/30 10:58:34;;;;;;;11.60;10.30;;;;;;;14.19;63.72;100138.02;105849;1275;22775;-81
2022/09/30 11:01:22;;;;;;;10.20;9.20;;;;;;;14.21;63.74;100137.07;106003;1275;22580;-81
2022/09/30 11:04:14;;;;;;;11.50;9.00;;;;;;;14.25;63.46;100138.20;106058;1275;25556;-81
2022/09/30 11:06:44;;;;;;;9.00;8.10;;;;;;;14.30;63.37;100139.65;106158;1274;22768;-81
2022/09/30 11:09:30;;;;;;;10.70;9.10;;;;;;;14.34;63.02;100139.38;106391;1276;25365;-78
2022/09/30 11:12:09;;;;;;;9.70;8.70;;;;;;;14.39;62.59;100138.54;106782;1274;22537;-80
2022/09/30 11:14:47;;;;;;;9.00;7.70;;;;;;;14.43;62.27;100136.29;106272;1275;25247;-80
2022/09/30 11:17:43;;;;;;;8.20;7.40;;;;;;;14.44;62.21;100135.71;106052;1274;24808;-81
2022/09/30 11:20:18;;;;;;;12.30;7.90;;;;;;;14.47;61.76;100134.92;105958;1274;24268;-80
2022/09/30 11:23:23;;;;;;;12.40;8.30;;;;;;;14.49;61.62;100136.10;105910;1278;22852;-81
2022/09/30 11:26:05;;;;;;;9.40;8.30;;;;;;;14.52;61.87;100132.30;105981;1276;24263;-81
2022/09/30 11:29:03;;;;;;;9.10;8.20;;;;;;;14.56;61.84;100131.10;106051;1274;25634;-81
2022/09/30 11:31:36;;;;;;;10.30;9.20;;;;;;;14.60;61.67;100134.52;106128;1274;22615;-80
2022/09/30 11:34:44;;;;;;;11.60;8.50;;;;;;;14.64;61.67;100137.45;106012;1274;25372;-78
2022/09/30 11:37:26;;;;;;;12.80;9.10;;;;;;;14.65;61.39;100132.63;106043;1275;25409;-80
2022/09/30 11:40:17;;;;;;;8.50;7.70;;;;;;;14.66;60.94;100133.85;106277;1273;25361;-82
2022/09/30 11:42:53;;;;;;;9.80;7.70;;;;;;;14.62;60.94;100133.98;106012;1275;25406;-81
2022/09/30 11:45:52;;;;;;;11.00;7.80;;;;;;;14.58;61.13;100136.20;106034;1274;24902;-78